createdAt,value
2018-03-14T00:00:53.687Z,7.37
2018-03-14T00:03:21.075Z,7.40
2018-03-14T00:05:48.466Z,8.80
2018-03-14T00:08:15.942Z,7.87
2018-03-14T00:10:43.337Z,7.00
2018-03-14T00:13:10.738Z,7.27
2018-03-14T00:15:38.123Z,6.77
2018-03-14T00:18:05.527Z,6.63
2018-03-14T00:20:32.930Z,6.10
2018-03-14T00:23:00.319Z,6.00
2018-03-14T00:25:27.703Z,7.20
2018-03-14T00:27:55.105Z,6.20
2018-03-14T00:30:22.498Z,7.10
2018-03-14T00:32:49.894Z,6.60
2018-03-14T00:35:17.354Z,7.50
2018-03-14T00:37:44.747Z,6.80
2018-03-14T00:40:12.171Z,7.50
2018-03-14T00:42:39.554Z,6.93
2018-03-14T00:45:06.972Z,5.77
2018-03-14T00:47:34.363Z,6.10
2018-03-14T00:50:01.776Z,5.87
2018-03-14T00:52:29.170Z,5.87
2018-03-14T00:54:56.560Z,6.97
2018-03-14T00:57:23.942Z,6.30
2018-03-14T00:59:51.327Z,5.50
2018-03-14T01:02:18.762Z,7.27
2018-03-14T01:04:46.141Z,6.87
2018-03-14T01:07:13.569Z,7.10
2018-03-14T01:09:40.959Z,7.10
2018-03-14T01:12:08.357Z,7.80
2018-03-14T01:14:35.851Z,7.97
2018-03-14T01:17:03.260Z,7.30
2018-03-14T01:19:30.672Z,7.43
2018-03-14T01:21:58.355Z,8.00
2018-03-14T01:24:25.782Z,9.17
2018-03-14T01:26:53.162Z,9.17
2018-03-14T01:29:20.579Z,9.00
2018-03-14T01:31:47.970Z,9.50
2018-03-14T01:34:15.376Z,10.20
2018-03-14T01:36:42.766Z,10.13
2018-03-14T01:39:10.165Z,8.27
2018-03-14T01:41:37.661Z,7.63
2018-03-14T01:44:05.048Z,8.33
2018-03-14T01:46:32.462Z,7.47
2018-03-14T01:48:59.858Z,7.53
2018-03-14T01:51:27.283Z,8.80
2018-03-14T01:53:54.729Z,8.37
2018-03-14T01:56:22.132Z,8.90
2018-03-14T01:58:49.518Z,8.07
2018-03-14T02:01:16.901Z,8.93
2018-03-14T02:03:44.305Z,7.23
2018-03-14T02:06:11.687Z,7.60
2018-03-14T02:08:39.079Z,6.97
2018-03-14T02:11:06.472Z,7.27
2018-03-14T02:13:33.874Z,7.43
2018-03-14T02:16:01.334Z,6.50
2018-03-14T02:18:28.728Z,6.80
2018-03-14T02:20:56.138Z,6.50
2018-03-14T02:23:23.601Z,7.20
2018-03-14T02:25:51.055Z,6.60
2018-03-14T02:28:18.443Z,7.50
2018-03-14T02:30:45.839Z,7.50
2018-03-14T02:33:13.324Z,6.90
2018-03-14T02:35:40.702Z,8.07
2018-03-14T02:38:08.099Z,7.17
2018-03-14T02:40:35.483Z,6.10
2018-03-14T02:43:02.870Z,6.80
2018-03-14T02:45:30.246Z,6.83
2018-03-14T02:47:57.751Z,7.70
2018-03-14T02:50:25.211Z,7.97
2018-03-14T02:52:52.608Z,6.70
2018-03-14T02:55:19.997Z,7.20
2018-03-14T02:57:47.386Z,7.90
2018-03-14T03:00:14.827Z,7.10
2018-03-14T03:02:42.247Z,7.73
2018-03-14T03:05:09.644Z,7.20
2018-03-14T03:07:37.058Z,7.63
2018-03-14T03:10:04.526Z,7.47
2018-03-14T03:12:31.975Z,7.23
2018-03-14T03:14:59.430Z,7.57
2018-03-14T03:17:26.815Z,8.13
2018-03-14T03:19:54.239Z,7.77
2018-03-14T03:22:21.638Z,8.70
2018-03-14T03:24:49.033Z,7.53
2018-03-14T03:27:16.507Z,9.80
2018-03-14T03:29:43.966Z,7.40
2018-03-14T03:32:11.478Z,8.90
2018-03-14T03:34:38.837Z,7.20
2018-03-14T03:37:06.227Z,8.77
2018-03-14T03:39:33.606Z,7.60
2018-03-14T03:42:01.010Z,8.80
2018-03-14T03:44:28.407Z,8.80
2018-03-14T03:46:55.880Z,8.50
2018-03-14T03:49:23.275Z,9.00
2018-03-14T03:51:50.665Z,9.20
2018-03-14T03:54:18.050Z,8.37
2018-03-14T03:56:45.439Z,8.47
2018-03-14T03:59:12.855Z,9.10
2018-03-14T04:01:40.278Z,9.63
2018-03-14T04:04:07.693Z,8.27
2018-03-14T04:06:35.070Z,8.90
2018-03-14T04:09:02.467Z,9.60
2018-03-14T04:11:29.853Z,8.47
2018-03-14T04:13:57.259Z,8.47
2018-03-14T04:16:24.643Z,9.37
2018-03-14T04:18:52.064Z,9.23
2018-03-14T04:21:19.442Z,9.17
2018-03-14T04:23:46.840Z,9.93
2018-03-14T04:26:14.228Z,9.93
2018-03-14T04:28:41.679Z,9.30
2018-03-14T04:31:09.139Z,9.47
2018-03-14T04:33:36.531Z,9.80
2018-03-14T04:36:03.917Z,9.30
2018-03-14T04:38:31.410Z,10.83
2018-03-14T04:40:58.806Z,9.97
2018-03-14T04:43:26.222Z,10.43
2018-03-14T04:45:53.611Z,11.20
2018-03-14T04:48:20.997Z,9.57
2018-03-14T04:50:48.490Z,11.60
2018-03-14T04:53:15.894Z,11.03
2018-03-14T04:55:43.282Z,10.40
2018-03-14T04:58:10.734Z,9.53
2018-03-14T05:00:38.129Z,9.07
2018-03-14T05:03:05.526Z,10.47
2018-03-14T05:05:32.924Z,11.33
2018-03-14T05:08:00.315Z,9.73
2018-03-14T05:10:27.731Z,9.33
2018-03-14T05:12:55.183Z,11.40
2018-03-14T05:15:22.574Z,8.60
2018-03-14T05:17:49.990Z,9.53
2018-03-14T05:20:17.422Z,10.83
2018-03-14T05:22:44.802Z,9.80
2018-03-14T05:25:12.203Z,10.00
2018-03-14T05:27:39.596Z,9.90
2018-03-14T05:30:06.991Z,9.60
2018-03-14T05:32:34.381Z,9.07
2018-03-14T05:35:01.771Z,9.73
2018-03-14T05:37:29.155Z,10.70
2018-03-14T05:39:56.556Z,9.23
2018-03-14T05:42:23.960Z,10.13
2018-03-14T05:44:51.363Z,9.13
2018-03-14T05:47:18.858Z,9.50
2018-03-14T05:49:46.255Z,10.00
2018-03-14T05:52:13.651Z,10.90
2018-03-14T05:54:41.050Z,9.77
2018-03-14T05:57:08.447Z,10.60
2018-03-14T05:59:35.843Z,8.87
2018-03-14T06:02:03.244Z,9.47
2018-03-14T06:04:30.642Z,9.60
2018-03-14T06:06:58.034Z,9.90
2018-03-14T06:09:25.430Z,8.20
2018-03-14T06:11:52.916Z,7.63
2018-03-14T06:14:20.330Z,8.00
2018-03-14T06:16:47.823Z,8.90
2018-03-14T06:19:15.214Z,7.90
2018-03-14T06:21:42.629Z,8.83
2018-03-14T06:24:10.100Z,7.17
2018-03-14T06:26:37.501Z,8.47
2018-03-14T06:29:04.905Z,7.07
2018-03-14T06:31:32.298Z,8.03
2018-03-14T06:33:59.686Z,7.40
2018-03-14T06:36:27.107Z,8.17
2018-03-14T06:38:54.515Z,8.50
2018-03-14T06:41:21.910Z,7.80
2018-03-14T06:43:49.318Z,7.30
2018-03-14T06:46:16.715Z,7.20
2018-03-14T06:48:44.138Z,7.27
2018-03-14T06:51:11.537Z,8.40
2018-03-14T06:53:38.918Z,8.03
2018-03-14T06:56:06.420Z,7.30
2018-03-14T06:58:45.627Z,8.43
2018-03-14T07:04:23.970Z,7.23
2018-03-14T07:06:51.423Z,6.20
2018-03-14T07:09:18.822Z,6.67
2018-03-14T07:11:46.238Z,5.80
2018-03-14T07:14:13.630Z,5.80
2018-03-14T07:16:41.010Z,4.70
2018-03-14T07:19:08.498Z,6.23
2018-03-14T07:21:35.890Z,6.70
2018-03-14T07:24:03.325Z,6.63
2018-03-14T07:26:30.694Z,5.27
2018-03-14T07:28:58.116Z,5.33
2018-03-14T07:31:25.506Z,5.17
2018-03-14T07:33:52.893Z,4.77
2018-03-14T07:36:20.381Z,5.17
2018-03-14T07:38:47.811Z,4.67
2018-03-14T07:41:15.203Z,4.30
2018-03-14T07:43:42.658Z,4.20
2018-03-14T07:46:10.042Z,4.53
2018-03-14T07:48:37.454Z,4.20
2018-03-14T07:51:04.847Z,4.30
2018-03-14T07:53:32.266Z,4.53
2018-03-14T07:55:59.736Z,4.83
2018-03-14T07:58:27.114Z,3.63
2018-03-14T08:00:54.504Z,3.37
2018-03-14T08:03:21.887Z,4.30
2018-03-14T08:05:49.284Z,3.30
2018-03-14T08:08:16.659Z,3.43
2018-03-14T08:10:44.050Z,3.80
2018-03-14T08:13:11.435Z,3.13
2018-03-14T08:15:38.828Z,3.30
2018-03-14T08:18:06.222Z,4.40
2018-03-14T08:20:33.685Z,3.67
2018-03-14T08:23:01.070Z,3.60
2018-03-14T08:25:28.454Z,3.90
2018-03-14T08:27:55.950Z,2.97
2018-03-14T08:30:23.345Z,3.50
2018-03-14T08:32:50.764Z,3.63
2018-03-14T08:35:18.206Z,3.50
2018-03-14T08:37:45.662Z,4.47
2018-03-14T08:40:13.050Z,3.43
2018-03-14T08:42:40.445Z,3.07
2018-03-14T08:45:07.823Z,3.27
2018-03-14T08:47:35.211Z,3.00
2018-03-14T08:50:02.661Z,3.33
2018-03-14T08:52:30.101Z,3.67
2018-03-14T08:54:57.478Z,3.10
2018-03-14T08:57:24.875Z,3.70
2018-03-14T08:59:52.266Z,3.80
2018-03-14T09:02:19.656Z,3.00
2018-03-14T09:04:47.047Z,3.20
2018-03-14T09:07:14.436Z,3.23
2018-03-14T09:09:41.827Z,4.03
2018-03-14T09:12:09.207Z,4.00
2018-03-14T09:14:36.595Z,5.20
2018-03-14T09:17:04.052Z,3.90
2018-03-14T09:19:31.435Z,3.53
2018-03-14T09:21:58.826Z,3.77
2018-03-14T09:24:26.211Z,3.60
2018-03-14T09:26:53.599Z,3.33
2018-03-14T09:29:20.974Z,4.10
2018-03-14T09:31:48.425Z,3.83
2018-03-14T09:34:15.762Z,3.47
2018-03-14T09:36:43.155Z,3.63
2018-03-14T09:39:10.542Z,3.40
2018-03-14T09:41:38.002Z,3.90
2018-03-14T09:44:05.475Z,3.63
2018-03-14T09:46:32.906Z,3.10
2018-03-14T09:49:00.315Z,3.37
2018-03-14T09:51:27.718Z,4.37
2018-03-14T09:53:55.082Z,4.00
2018-03-14T09:56:22.535Z,3.13
2018-03-14T09:58:49.916Z,3.10
2018-03-14T10:01:17.310Z,3.40
2018-03-14T10:03:44.806Z,3.37
2018-03-14T10:06:12.263Z,3.80
2018-03-14T10:08:39.657Z,3.30
2018-03-14T10:11:07.039Z,3.03
2018-03-14T10:13:34.422Z,3.20
2018-03-14T10:16:01.896Z,3.30
2018-03-14T10:18:29.279Z,4.37
2018-03-14T10:20:56.706Z,3.30
2018-03-14T10:23:24.110Z,3.70
2018-03-14T10:25:51.580Z,3.50
2018-03-14T10:28:18.950Z,3.87
2018-03-14T10:30:46.335Z,3.53
2018-03-14T10:33:13.719Z,3.07
2018-03-14T10:35:41.104Z,3.07
2018-03-14T10:38:08.576Z,3.60
2018-03-14T10:40:35.960Z,3.67
2018-03-14T10:43:03.351Z,3.57
2018-03-14T10:45:30.742Z,3.70
2018-03-14T10:47:58.215Z,3.80
2018-03-14T10:50:25.661Z,3.37
2018-03-14T10:52:53.042Z,3.53
2018-03-14T10:55:20.434Z,3.70
2018-03-14T10:57:47.815Z,4.20
2018-03-14T11:03:18.356Z,4.57
2018-03-14T11:05:45.747Z,4.90
2018-03-14T11:08:13.175Z,4.07
2018-03-14T11:10:40.655Z,3.80
2018-03-14T11:13:08.091Z,3.77
2018-03-14T11:15:35.505Z,3.13
2018-03-14T11:18:02.881Z,3.53
2018-03-14T11:20:30.241Z,3.77
2018-03-14T11:22:57.655Z,3.47
2018-03-14T11:25:25.069Z,3.87
2018-03-14T11:27:52.454Z,5.10
2018-03-14T11:30:19.869Z,3.80
2018-03-14T11:32:47.330Z,3.83
2018-03-14T11:35:14.801Z,3.47
2018-03-14T11:37:42.218Z,4.17
2018-03-14T11:40:09.602Z,4.20
2018-03-14T11:42:36.994Z,3.70
2018-03-14T11:45:04.391Z,3.33
2018-03-14T11:47:31.866Z,3.67
2018-03-14T11:49:59.326Z,3.63
2018-03-14T11:52:26.786Z,3.50
2018-03-14T11:54:54.175Z,3.57
2018-03-14T11:57:21.613Z,3.20
2018-03-14T11:59:48.950Z,3.63
2018-03-14T12:02:16.405Z,3.70
2018-03-14T12:04:43.790Z,3.60
2018-03-14T12:07:11.186Z,3.10
2018-03-14T12:09:38.574Z,3.00
2018-03-14T12:12:05.975Z,3.30
2018-03-14T12:14:33.353Z,2.57
2018-03-14T12:17:00.743Z,2.50
2018-03-14T12:19:28.126Z,2.63
2018-03-14T12:21:55.546Z,2.97
2018-03-14T12:24:22.934Z,2.70
2018-03-14T12:26:50.324Z,2.33
2018-03-14T12:29:17.727Z,2.70
2018-03-14T12:31:45.162Z,2.97
2018-03-14T12:34:12.551Z,3.00
2018-03-14T12:36:39.931Z,3.07
2018-03-14T12:39:07.330Z,2.30
2018-03-14T12:41:34.795Z,2.50
2018-03-14T12:44:02.178Z,2.93
2018-03-14T12:46:29.564Z,2.17
2018-03-14T12:48:56.951Z,2.63
2018-03-14T12:51:25.110Z,2.67
2018-03-14T12:53:52.586Z,2.03
2018-03-14T12:56:19.976Z,2.20
2018-03-14T12:58:47.390Z,2.80
2018-03-14T13:01:14.855Z,3.43
2018-03-14T13:03:42.302Z,2.50
2018-03-14T13:06:09.695Z,2.70
2018-03-14T13:08:37.099Z,2.60
2018-03-14T13:11:04.538Z,2.97
2018-03-14T13:13:31.927Z,2.73
2018-03-14T13:15:59.311Z,2.17
2018-03-14T13:18:26.722Z,2.20
2018-03-14T13:20:54.142Z,2.87
2018-03-14T13:23:21.538Z,2.70
2018-03-14T13:25:48.931Z,2.50
2018-03-14T13:28:16.414Z,2.30
2018-03-14T13:30:43.887Z,2.73
2018-03-14T13:33:12.049Z,2.83
2018-03-14T13:35:39.475Z,2.40
2018-03-14T13:38:06.826Z,2.20
2018-03-14T13:40:34.214Z,2.40
2018-03-14T13:43:01.626Z,2.40
2018-03-14T13:45:29.008Z,2.63
2018-03-14T13:47:56.480Z,2.60
2018-03-14T13:50:23.932Z,2.20
2018-03-14T13:52:51.338Z,2.70
2018-03-14T13:55:18.774Z,2.90
2018-03-14T13:57:46.202Z,3.13
2018-03-14T14:00:13.596Z,2.70
2018-03-14T14:02:40.994Z,2.77
2018-03-14T14:05:08.470Z,2.10
2018-03-14T14:07:35.923Z,2.00
2018-03-14T14:10:03.388Z,2.70
2018-03-14T14:12:30.816Z,2.37
2018-03-14T14:14:58.195Z,2.67
2018-03-14T14:17:25.650Z,3.07
2018-03-14T14:19:53.047Z,2.90
2018-03-14T14:22:20.426Z,2.20
2018-03-14T14:24:47.933Z,2.73
2018-03-14T14:27:15.302Z,2.80
2018-03-14T14:29:42.711Z,2.20
2018-03-14T14:32:10.193Z,3.10
2018-03-14T14:34:37.638Z,2.83
2018-03-14T14:37:05.032Z,2.70
2018-03-14T14:39:32.459Z,2.70
2018-03-14T14:41:59.839Z,3.60
2018-03-14T14:44:27.269Z,3.10
2018-03-14T14:46:54.719Z,3.37
2018-03-14T14:49:22.098Z,3.87
2018-03-14T14:51:49.503Z,3.40
2018-03-14T14:54:16.893Z,3.20
2018-03-14T14:56:44.278Z,3.53
2018-03-14T14:59:11.671Z,3.53
2018-03-14T15:01:39.154Z,4.00
2018-03-14T15:04:06.608Z,3.47
2018-03-14T15:06:33.994Z,3.60
2018-03-14T15:09:01.387Z,3.17
2018-03-14T15:11:28.870Z,3.83
2018-03-14T15:13:56.262Z,3.20
2018-03-14T15:16:23.647Z,3.70
2018-03-14T15:18:51.142Z,5.13
2018-03-14T15:21:18.727Z,4.07
2018-03-14T15:23:46.058Z,3.03
2018-03-14T15:26:13.443Z,3.43
2018-03-14T15:28:40.839Z,4.37
2018-03-14T15:31:08.326Z,4.53
2018-03-14T15:33:35.714Z,3.47
2018-03-14T15:36:03.110Z,5.80
2018-03-14T15:38:30.482Z,4.90
2018-03-14T15:40:57.866Z,3.13
2018-03-14T15:43:25.266Z,3.00
2018-03-14T15:45:52.650Z,3.07
2018-03-14T15:48:20.051Z,3.40
2018-03-14T15:50:47.439Z,3.10
2018-03-14T15:53:14.823Z,2.80
2018-03-14T15:55:42.206Z,2.80
2018-03-14T15:58:09.590Z,2.70
2018-03-14T16:00:36.970Z,2.70
2018-03-14T16:03:04.443Z,3.50
2018-03-14T16:05:31.826Z,2.60
2018-03-14T16:07:59.249Z,2.53
2018-03-14T16:10:26.673Z,3.00
2018-03-14T16:12:54.066Z,2.77
2018-03-14T16:15:21.459Z,2.97
2018-03-14T16:17:48.847Z,2.60
2018-03-14T16:20:16.234Z,2.60
2018-03-14T16:22:43.635Z,3.40
2018-03-14T16:25:11.022Z,2.53
2018-03-14T16:27:38.399Z,2.63
2018-03-14T16:30:05.854Z,2.33
2018-03-14T16:32:33.303Z,2.50
2018-03-14T16:35:00.690Z,2.97
2018-03-14T16:37:28.086Z,2.23
2018-03-14T16:39:55.486Z,2.90
2018-03-14T16:42:22.923Z,2.50
2018-03-14T16:44:50.311Z,2.03
2018-03-14T16:47:17.695Z,2.23
2018-03-14T16:49:45.089Z,2.73
2018-03-14T16:52:12.547Z,2.50
2018-03-14T16:54:39.931Z,2.30
2018-03-14T16:57:07.310Z,2.37
2018-03-14T16:59:34.702Z,2.57
2018-03-14T17:02:02.083Z,2.28
2018-03-14T17:04:29.473Z,2.30
2018-03-14T17:06:56.859Z,2.63
2018-03-14T17:09:24.250Z,2.70
2018-03-14T17:11:51.655Z,2.70
2018-03-14T17:14:27.132Z,2.60
2018-03-14T17:16:46.622Z,2.87
2018-03-14T17:19:13.991Z,2.30
2018-03-14T17:21:41.379Z,2.50
2018-03-14T17:24:08.771Z,2.47
2018-03-14T17:26:36.224Z,2.70
2018-03-14T17:29:03.683Z,2.80
2018-03-14T17:31:31.079Z,2.20
2018-03-14T17:33:58.470Z,2.67
2018-03-14T17:36:25.891Z,2.60
2018-03-14T17:38:53.248Z,2.73
2018-03-14T17:41:20.662Z,2.37
2018-03-14T17:43:48.094Z,2.60
2018-03-14T17:46:15.425Z,2.43
2018-03-14T17:48:42.814Z,3.10
2018-03-14T17:51:10.286Z,2.80
2018-03-14T17:53:37.660Z,2.47
2018-03-14T17:56:05.043Z,2.67
2018-03-14T17:58:32.433Z,2.40
2018-03-14T18:00:59.822Z,2.87
2018-03-14T18:03:27.207Z,2.80
2018-03-14T18:05:54.609Z,3.33
2018-03-14T18:08:22.104Z,3.00
2018-03-14T18:10:49.503Z,3.07
2018-03-14T18:13:16.920Z,3.27
2018-03-14T18:15:44.302Z,3.53
2018-03-14T18:18:11.779Z,2.20
2018-03-14T18:20:39.178Z,2.57
2018-03-14T18:23:06.557Z,3.40
2018-03-14T18:25:33.946Z,4.37
2018-03-14T18:28:01.354Z,4.40
2018-03-14T18:30:28.759Z,3.10
2018-03-14T18:32:56.243Z,3.83
2018-03-14T18:35:23.640Z,2.97
2018-03-14T18:37:51.035Z,2.97
2018-03-14T18:40:18.495Z,3.20
2018-03-14T18:42:45.951Z,2.27
2018-03-14T18:45:13.335Z,3.20
2018-03-14T18:47:40.763Z,3.20
2018-03-14T18:50:08.310Z,2.80
2018-03-14T18:52:35.707Z,2.80
2018-03-14T18:55:03.177Z,3.70
2018-03-14T18:57:30.543Z,3.90
2018-03-14T18:59:57.963Z,3.00
2018-03-14T19:02:25.365Z,2.60
2018-03-14T19:04:52.757Z,3.13
2018-03-14T19:07:20.164Z,2.47
2018-03-14T19:09:47.563Z,3.30
2018-03-14T19:12:14.951Z,3.57
2018-03-14T19:14:42.406Z,3.30
2018-03-14T19:17:09.792Z,3.53
2018-03-14T19:19:37.238Z,3.80
2018-03-14T19:22:04.574Z,4.27
2018-03-14T19:24:31.983Z,4.10
2018-03-14T19:26:59.359Z,3.70
2018-03-14T19:29:26.834Z,2.90
2018-03-14T19:31:54.218Z,3.53
2018-03-14T19:34:21.643Z,4.47
2018-03-14T19:36:49.131Z,3.83
2018-03-14T19:39:16.564Z,3.83
2018-03-14T19:41:44.010Z,4.83
2018-03-14T19:44:11.409Z,4.70
2018-03-14T19:46:38.796Z,4.50
2018-03-14T19:49:06.184Z,5.10
2018-03-14T19:51:33.641Z,5.43
2018-03-14T19:54:01.096Z,5.33
2018-03-14T19:56:28.479Z,5.30
2018-03-14T19:58:55.867Z,5.20
2018-03-14T20:01:23.246Z,6.20
2018-03-14T20:03:50.644Z,5.93
2018-03-14T20:06:18.069Z,5.10
2018-03-14T20:08:45.529Z,5.80
2018-03-14T20:11:12.866Z,6.47
2018-03-14T20:13:40.340Z,6.13
2018-03-14T20:16:07.731Z,6.70
2018-03-14T20:18:35.158Z,7.83
2018-03-14T20:21:02.602Z,6.47
2018-03-14T20:23:29.974Z,7.80
2018-03-14T20:25:57.373Z,7.53
2018-03-14T20:28:24.751Z,6.87
2018-03-14T20:30:52.142Z,7.30
2018-03-14T20:33:19.529Z,7.70
2018-03-14T20:35:46.966Z,7.03
2018-03-14T20:38:14.356Z,6.67
2018-03-14T20:40:41.760Z,6.70
2018-03-14T20:43:09.130Z,6.90
2018-03-14T20:45:36.515Z,8.07
2018-03-14T20:48:03.902Z,7.43
2018-03-14T20:50:31.294Z,7.73
2018-03-14T20:52:58.695Z,8.83
2018-03-14T20:55:26.090Z,8.20
2018-03-14T20:57:53.536Z,7.70
2018-03-14T21:00:20.882Z,7.63
2018-03-14T21:02:48.304Z,7.93
2018-03-14T21:05:15.691Z,8.60
2018-03-14T21:07:43.083Z,8.50
2018-03-14T21:10:10.491Z,8.67
2018-03-14T21:12:37.967Z,8.47
2018-03-14T21:15:05.347Z,7.80
2018-03-14T21:17:32.743Z,9.63
2018-03-14T21:20:00.130Z,9.20
2018-03-14T21:22:27.563Z,9.07
2018-03-14T21:24:54.961Z,8.53
2018-03-14T21:27:22.362Z,9.03
2018-03-14T21:29:49.851Z,8.90
2018-03-14T21:32:17.264Z,10.00
2018-03-14T21:34:44.771Z,10.30
2018-03-14T21:37:12.166Z,10.67
2018-03-14T21:39:39.570Z,11.40
2018-03-14T21:42:06.967Z,11.83
2018-03-14T21:44:34.424Z,10.93
2018-03-14T21:47:01.790Z,12.07
2018-03-14T21:49:29.182Z,11.40
2018-03-14T21:51:56.584Z,12.87
2018-03-14T21:54:23.975Z,11.63
2018-03-14T21:56:51.379Z,12.00
2018-03-14T21:59:18.817Z,12.37
2018-03-14T22:01:46.243Z,12.88
2018-03-14T22:04:13.630Z,12.47
2018-03-14T22:06:41.042Z,12.10
2018-03-14T22:09:08.447Z,12.80
2018-03-14T22:11:35.996Z,12.83
2018-03-14T22:14:03.410Z,12.07
2018-03-14T22:16:30.813Z,12.20
2018-03-14T22:18:58.219Z,12.10
2018-03-14T22:21:25.674Z,12.70
2018-03-14T22:23:53.068Z,11.80
2018-03-14T22:26:20.483Z,12.93
2018-03-14T22:28:47.854Z,13.20
2018-03-14T22:31:15.267Z,13.47
2018-03-14T22:33:42.682Z,12.87
2018-03-14T22:36:10.091Z,11.90
2018-03-14T22:38:37.499Z,11.60
2018-03-14T22:41:04.887Z,12.10
2018-03-14T22:43:32.296Z,12.17
2018-03-14T22:45:59.728Z,12.20
2018-03-14T22:48:27.142Z,11.47
2018-03-14T22:50:54.548Z,11.37
2018-03-14T22:53:21.937Z,10.97
2018-03-14T22:55:49.336Z,11.77
2018-03-14T22:58:16.735Z,12.07
2018-03-14T23:00:44.128Z,11.57
2018-03-14T23:03:11.619Z,12.17
2018-03-14T23:05:39.015Z,13.07
2018-03-14T23:08:06.423Z,12.10
2018-03-14T23:10:33.879Z,12.53
2018-03-14T23:13:01.275Z,12.73
2018-03-14T23:15:28.674Z,13.90
2018-03-14T23:17:56.150Z,12.97
2018-03-14T23:20:23.553Z,12.43
2018-03-14T23:22:50.950Z,13.60
2018-03-14T23:25:18.424Z,13.23
2018-03-14T23:27:45.826Z,14.20
2018-03-14T23:30:13.230Z,12.30
2018-03-14T23:32:40.649Z,13.93
2018-03-14T23:35:08.080Z,13.40
2018-03-14T23:37:35.430Z,12.90
2018-03-14T23:40:02.823Z,13.23
2018-03-14T23:42:30.326Z,12.27
2018-03-14T23:44:57.766Z,12.80
2018-03-14T23:47:25.158Z,12.93
2018-03-14T23:49:52.547Z,15.07
2018-03-14T23:52:19.946Z,14.33
2018-03-14T23:54:47.394Z,13.20
2018-03-14T23:57:14.795Z,13.00
2018-03-14T23:59:42.210Z,12.00
